sensor_id;sensor_type;location;lat;lon;timestamp;P1;durP1;ratioP1;P2;durP2;ratioP2
22622;SDS011;11478;51.094;7.030;2022-11-11T00:01:46;19.40;;;7.17;;
22622;SDS011;11478;51.094;7.030;2022-11-11T00:04:26;19.50;;;8.82;;
22622;SDS011;11478;51.094;7.030;2022-11-11T00:06:55;16.67;;;7.38;;
22622;SDS011;11478;51.094;7.030;2022-11-11T00:09:25;13.93;;;7.68;;
22622;SDS011;11478;51.094;7.030;2022-11-11T00:11:56;15.35;;;7.07;;
22622;SDS011;11478;51.094;7.030;2022-11-11T00:14:58;16.45;;;7.65;;
22622;SDS011;11478;51.094;7.030;2022-11-11T00:17:28;16.50;;;7.43;;
22622;SDS011;11478;51.094;7.030;2022-11-11T00:20:12;17.90;;;8.27;;
22622;SDS011;11478;51.094;7.030;2022-11-11T00:22:57;17.60;;;7.63;;
22622;SDS011;11478;51.094;7.030;2022-11-11T00:25:45;14.05;;;6.60;;
22622;SDS011;11478;51.094;7.030;2022-11-11T00:28:34;15.60;;;7.28;;
22622;SDS011;11478;51.094;7.030;2022-11-11T00:31:24;15.35;;;6.70;;
22622;SDS011;11478;51.094;7.030;2022-11-11T00:34:30;17.33;;;8.25;;
22622;SDS011;11478;51.094;7.030;2022-11-11T00:37:01;19.98;;;7.43;;
22622;SDS011;11478;51.094;7.030;2022-11-11T00:39:37;13.70;;;7.63;;
22622;SDS011;11478;51.094;7.030;2022-11-11T00:42:13;16.13;;;7.47;;
22622;SDS011;11478;51.094;7.030;2022-11-11T01:03:19;16.00;;;7.93;;
22622;SDS011;11478;51.094;7.030;2022-11-11T01:05:49;14.88;;;7.75;;
22622;SDS011;11478;51.094;7.030;2022-11-11T01:08:29;17.65;;;7.32;;
22622;SDS011;11478;51.094;7.030;2022-11-11T01:14:12;16.25;;;8.07;;
22622;SDS011;11478;51.094;7.030;2022-11-11T01:24:37;20.25;;;8.30;;
22622;SDS011;11478;51.094;7.030;2022-11-11T01:27:17;19.70;;;7.65;;
22622;SDS011;11478;51.094;7.030;2022-11-11T01:32:31;14.95;;;8.40;;
22622;SDS011;11478;51.094;7.030;2022-11-11T01:35:17;14.00;;;7.60;;
22622;SDS011;11478;51.094;7.030;2022-11-11T01:38:03;20.67;;;8.95;;
22622;SDS011;11478;51.094;7.030;2022-11-11T01:56:24;18.90;;;8.23;;
22622;SDS011;11478;51.094;7.030;2022-11-11T02:01:44;18.98;;;8.38;;
22622;SDS011;11478;51.094;7.030;2022-11-11T02:04:15;16.83;;;8.35;;
22622;SDS011;11478;51.094;7.030;2022-11-11T02:07:07;11.93;;;7.72;;
22622;SDS011;11478;51.094;7.030;2022-11-11T02:12:37;16.05;;;8.05;;
22622;SDS011;11478;51.094;7.030;2022-11-11T02:15:22;15.73;;;8.70;;
22622;SDS011;11478;51.094;7.030;2022-11-11T02:29:10;21.38;;;8.82;;
22622;SDS011;11478;51.094;7.030;2022-11-11T02:34:34;17.92;;;8.50;;
22622;SDS011;11478;51.094;7.030;2022-11-11T02:42:26;15.27;;;8.93;;
22622;SDS011;11478;51.094;7.030;2022-11-11T02:44:59;16.40;;;8.65;;
22622;SDS011;11478;51.094;7.030;2022-11-11T02:50:10;18.50;;;8.57;;
22622;SDS011;11478;51.094;7.030;2022-11-11T02:55:19;15.43;;;8.35;;
22622;SDS011;11478;51.094;7.030;2022-11-11T03:00:36;18.92;;;8.90;;
22622;SDS011;11478;51.094;7.030;2022-11-11T03:08:28;17.15;;;8.23;;
22622;SDS011;11478;51.094;7.030;2022-11-11T03:11:10;13.90;;;8.57;;
22622;SDS011;11478;51.094;7.030;2022-11-11T03:30:20;15.68;;;7.47;;
22622;SDS011;11478;51.094;7.030;2022-11-11T03:35:27;18.02;;;8.18;;
22622;SDS011;11478;51.094;7.030;2022-11-11T03:38:16;16.50;;;8.02;;
22622;SDS011;11478;51.094;7.030;2022-11-11T03:40:50;16.58;;;8.07;;
22622;SDS011;11478;51.094;7.030;2022-11-11T03:48:47;16.95;;;8.02;;
22622;SDS011;11478;51.094;7.030;2022-11-11T03:51:25;14.68;;;8.43;;
22622;SDS011;11478;51.094;7.030;2022-11-11T03:53:57;14.70;;;7.70;;
22622;SDS011;11478;51.094;7.030;2022-11-11T03:56:37;16.67;;;7.72;;
22622;SDS011;11478;51.094;7.030;2022-11-11T03:59:09;18.77;;;8.20;;
22622;SDS011;11478;51.094;7.030;2022-11-11T04:04:26;11.45;;;6.97;;
22622;SDS011;11478;51.094;7.030;2022-11-11T04:12:24;15.02;;;7.32;;
22622;SDS011;11478;51.094;7.030;2022-11-11T04:14:56;15.18;;;6.78;;
22622;SDS011;11478;51.094;7.030;2022-11-11T04:20:20;19.38;;;7.70;;
22622;SDS011;11478;51.094;7.030;2022-11-11T04:23:11;10.48;;;7.20;;
22622;SDS011;11478;51.094;7.030;2022-11-11T04:25:42;14.07;;;7.47;;
22622;SDS011;11478;51.094;7.030;2022-11-11T04:33:39;15.98;;;8.60;;
22622;SDS011;11478;51.094;7.030;2022-11-11T04:36:28;13.63;;;7.40;;
22622;SDS011;11478;51.094;7.030;2022-11-11T04:38:57;12.75;;;7.00;;
22622;SDS011;11478;51.094;7.030;2022-11-11T04:44:07;13.77;;;7.18;;
22622;SDS011;11478;51.094;7.030;2022-11-11T05:10:05;12.15;;;6.82;;
22622;SDS011;11478;51.094;7.030;2022-11-11T05:12:36;14.10;;;6.75;;
22622;SDS011;11478;51.094;7.030;2022-11-11T05:18:06;13.35;;;6.90;;
22622;SDS011;11478;51.094;7.030;2022-11-11T05:20:52;15.35;;;7.38;;
22622;SDS011;11478;51.094;7.030;2022-11-11T05:23:37;13.40;;;7.30;;
22622;SDS011;11478;51.094;7.030;2022-11-11T05:26:25;13.30;;;6.65;;
22622;SDS011;11478;51.094;7.030;2022-11-11T05:28:51;17.15;;;12.07;;
22622;SDS011;11478;51.094;7.030;2022-11-11T05:31:20;11.80;;;8.13;;
22622;SDS011;11478;51.094;7.030;2022-11-11T05:33:55;13.10;;;7.00;;
22622;SDS011;11478;51.094;7.030;2022-11-11T05:36:25;15.10;;;7.22;;
22622;SDS011;11478;51.094;7.030;2022-11-11T05:41:27;13.88;;;7.35;;
22622;SDS011;11478;51.094;7.030;2022-11-11T05:43:53;14.95;;;7.78;;
22622;SDS011;11478;51.094;7.030;2022-11-11T05:48:48;11.98;;;7.63;;
22622;SDS011;11478;51.094;7.030;2022-11-11T05:51:41;13.90;;;7.75;;
22622;SDS011;11478;51.094;7.030;2022-11-11T05:54:08;12.65;;;7.40;;
22622;SDS011;11478;51.094;7.030;2022-11-11T05:56:41;17.55;;;7.70;;
22622;SDS011;11478;51.094;7.030;2022-11-11T05:59:07;10.63;;;7.28;;
22622;SDS011;11478;51.094;7.030;2022-11-11T06:01:37;12.80;;;7.75;;
22622;SDS011;11478;51.094;7.030;2022-11-11T06:04:04;15.50;;;7.45;;
22622;SDS011;11478;51.094;7.030;2022-11-11T06:06:32;13.38;;;7.60;;
22622;SDS011;11478;51.094;7.030;2022-11-11T06:09:06;14.13;;;8.02;;
22622;SDS011;11478;51.094;7.030;2022-11-11T06:11:32;18.23;;;7.65;;
22622;SDS011;11478;51.094;7.030;2022-11-11T06:13:58;13.20;;;7.53;;
22622;SDS011;11478;51.094;7.030;2022-11-11T06:16:27;11.40;;;7.65;;
22622;SDS011;11478;51.094;7.030;2022-11-11T06:18:53;12.93;;;7.05;;
22622;SDS011;11478;51.094;7.030;2022-11-11T06:21:22;11.02;;;7.22;;
22622;SDS011;11478;51.094;7.030;2022-11-11T06:23:48;14.25;;;6.88;;
22622;SDS011;11478;51.094;7.030;2022-11-11T06:26:18;11.05;;;7.07;;
22622;SDS011;11478;51.094;7.030;2022-11-11T06:28:46;13.98;;;7.60;;
22622;SDS011;11478;51.094;7.030;2022-11-11T06:31:21;12.18;;;6.55;;
22622;SDS011;11478;51.094;7.030;2022-11-11T06:33:58;10.30;;;6.65;;
22622;SDS011;11478;51.094;7.030;2022-11-11T06:36:27;11.50;;;6.93;;
22622;SDS011;11478;51.094;7.030;2022-11-11T06:39:01;13.95;;;7.20;;
22622;SDS011;11478;51.094;7.030;2022-11-11T06:44:12;11.38;;;6.60;;
22622;SDS011;11478;51.094;7.030;2022-11-11T06:46:42;14.82;;;7.38;;
22622;SDS011;11478;51.094;7.030;2022-11-11T06:49:08;11.95;;;6.78;;
22622;SDS011;11478;51.094;7.030;2022-11-11T06:51:36;12.05;;;6.78;;
22622;SDS011;11478;51.094;7.030;2022-11-11T06:54:02;22.25;;;7.90;;
22622;SDS011;11478;51.094;7.030;2022-11-11T06:56:28;13.43;;;7.32;;
22622;SDS011;11478;51.094;7.030;2022-11-11T06:58:54;15.35;;;6.90;;
22622;SDS011;11478;51.094;7.030;2022-11-11T07:01:21;11.63;;;6.97;;
22622;SDS011;11478;51.094;7.030;2022-11-11T07:03:47;11.45;;;7.10;;
22622;SDS011;11478;51.094;7.030;2022-11-11T07:06:17;14.10;;;7.30;;
22622;SDS011;11478;51.094;7.030;2022-11-11T07:08:43;11.23;;;7.55;;
22622;SDS011;11478;51.094;7.030;2022-11-11T07:11:09;16.05;;;7.13;;
22622;SDS011;11478;51.094;7.030;2022-11-11T07:13:37;13.88;;;7.57;;
22622;SDS011;11478;51.094;7.030;2022-11-11T07:16:04;13.15;;;7.40;;
22622;SDS011;11478;51.094;7.030;2022-11-11T07:18:35;14.35;;;7.75;;
22622;SDS011;11478;51.094;7.030;2022-11-11T07:23:43;17.55;;;7.40;;
22622;SDS011;11478;51.094;7.030;2022-11-11T07:26:09;17.70;;;8.02;;
22622;SDS011;11478;51.094;7.030;2022-11-11T07:28:36;15.10;;;7.55;;
22622;SDS011;11478;51.094;7.030;2022-11-11T07:31:01;11.20;;;7.18;;
22622;SDS011;11478;51.094;7.030;2022-11-11T07:33:30;15.45;;;7.63;;
22622;SDS011;11478;51.094;7.030;2022-11-11T07:35:56;12.50;;;7.50;;
22622;SDS011;11478;51.094;7.030;2022-11-11T07:38:25;11.93;;;7.50;;
22622;SDS011;11478;51.094;7.030;2022-11-11T07:40:51;12.15;;;6.95;;
22622;SDS011;11478;51.094;7.030;2022-11-11T07:43:21;15.27;;;7.45;;
22622;SDS011;11478;51.094;7.030;2022-11-11T07:45:49;10.45;;;7.30;;
22622;SDS011;11478;51.094;7.030;2022-11-11T07:48:17;12.93;;;7.32;;
22622;SDS011;11478;51.094;7.030;2022-11-11T07:50:43;18.02;;;7.25;;
22622;SDS011;11478;51.094;7.030;2022-11-11T07:53:12;10.95;;;7.00;;
22622;SDS011;11478;51.094;7.030;2022-11-11T07:55:44;14.50;;;7.38;;
22622;SDS011;11478;51.094;7.030;2022-11-11T07:58:10;15.13;;;7.65;;
22622;SDS011;11478;51.094;7.030;2022-11-11T08:00:37;12.30;;;6.93;;
22622;SDS011;11478;51.094;7.030;2022-11-11T08:03:15;12.65;;;7.05;;
22622;SDS011;11478;51.094;7.030;2022-11-11T08:05:41;11.95;;;7.32;;
22622;SDS011;11478;51.094;7.030;2022-11-11T08:08:10;13.60;;;7.93;;
22622;SDS011;11478;51.094;7.030;2022-11-11T08:10:36;9.73;;;7.07;;
22622;SDS011;11478;51.094;7.030;2022-11-11T08:13:08;11.88;;;6.70;;
22622;SDS011;11478;51.094;7.030;2022-11-11T08:15:56;13.25;;;6.93;;
22622;SDS011;11478;51.094;7.030;2022-11-11T08:20:54;11.57;;;6.70;;
22622;SDS011;11478;51.094;7.030;2022-11-11T08:23:23;12.32;;;7.60;;
22622;SDS011;11478;51.094;7.030;2022-11-11T08:26:00;13.90;;;6.63;;
22622;SDS011;11478;51.094;7.030;2022-11-11T08:28:28;12.68;;;7.10;;
22622;SDS011;11478;51.094;7.030;2022-11-11T08:31:00;13.65;;;7.50;;
22622;SDS011;11478;51.094;7.030;2022-11-11T08:33:27;12.35;;;7.18;;
22622;SDS011;11478;51.094;7.030;2022-11-11T08:36:05;12.13;;;6.70;;
22622;SDS011;11478;51.094;7.030;2022-11-11T08:38:33;12.57;;;7.00;;
22622;SDS011;11478;51.094;7.030;2022-11-11T08:41:05;14.20;;;6.57;;
22622;SDS011;11478;51.094;7.030;2022-11-11T08:43:33;12.90;;;7.15;;
22622;SDS011;11478;51.094;7.030;2022-11-11T08:45:59;11.18;;;6.60;;
22622;SDS011;11478;51.094;7.030;2022-11-11T08:48:37;11.43;;;6.90;;
22622;SDS011;11478;51.094;7.030;2022-11-11T08:51:13;18.73;;;7.70;;
22622;SDS011;11478;51.094;7.030;2022-11-11T08:54:04;11.88;;;6.75;;
22622;SDS011;11478;51.094;7.030;2022-11-11T09:04:26;12.10;;;6.85;;
22622;SDS011;11478;51.094;7.030;2022-11-11T09:06:54;11.82;;;6.03;;
22622;SDS011;11478;51.094;7.030;2022-11-11T09:09:30;11.00;;;6.40;;
22622;SDS011;11478;51.094;7.030;2022-11-11T09:11:59;9.90;;;6.13;;
22622;SDS011;11478;51.094;7.030;2022-11-11T09:20:09;14.88;;;5.95;;
22622;SDS011;11478;51.094;7.030;2022-11-11T09:28:08;12.60;;;6.45;;
22622;SDS011;11478;51.094;7.030;2022-11-11T09:30:57;11.23;;;6.35;;
22622;SDS011;11478;51.094;7.030;2022-11-11T09:33:57;14.02;;;6.63;;
22622;SDS011;11478;51.094;7.030;2022-11-11T09:39:22;8.77;;;6.07;;
22622;SDS011;11478;51.094;7.030;2022-11-11T09:47:36;8.02;;;5.43;;
22622;SDS011;11478;51.094;7.030;2022-11-11T09:50:34;9.57;;;5.20;;
22622;SDS011;11478;51.094;7.030;2022-11-11T09:53:19;9.52;;;4.70;;
22622;SDS011;11478;51.094;7.030;2022-11-11T09:56:12;9.57;;;4.68;;
22622;SDS011;11478;51.094;7.030;2022-11-11T10:01:51;7.72;;;4.88;;
22622;SDS011;11478;51.094;7.030;2022-11-11T10:07:47;7.07;;;4.30;;
22622;SDS011;11478;51.094;7.030;2022-11-11T10:10:28;7.00;;;4.68;;
22622;SDS011;11478;51.094;7.030;2022-11-11T10:13:14;9.95;;;4.93;;
22622;SDS011;11478;51.094;7.030;2022-11-11T10:24:25;7.82;;;4.50;;
22622;SDS011;11478;51.094;7.030;2022-11-11T10:27:03;8.43;;;4.30;;
22622;SDS011;11478;51.094;7.030;2022-11-11T10:29:51;8.80;;;4.47;;
22622;SDS011;11478;51.094;7.030;2022-11-11T10:32:22;7.22;;;3.97;;
22622;SDS011;11478;51.094;7.030;2022-11-11T10:35:26;5.90;;;3.97;;
22622;SDS011;11478;51.094;7.030;2022-11-11T10:41:16;6.82;;;4.05;;
22622;SDS011;11478;51.094;7.030;2022-11-11T10:44:13;7.65;;;3.92;;
22622;SDS011;11478;51.094;7.030;2022-11-11T10:53:09;6.72;;;3.95;;
22622;SDS011;11478;51.094;7.030;2022-11-11T10:55:54;6.15;;;3.50;;
22622;SDS011;11478;51.094;7.030;2022-11-11T11:04:52;6.60;;;3.53;;
22622;SDS011;11478;51.094;7.030;2022-11-11T11:07:46;5.45;;;3.33;;
22622;SDS011;11478;51.094;7.030;2022-11-11T11:13:15;5.32;;;3.53;;
22622;SDS011;11478;51.094;7.030;2022-11-11T11:16:15;5.82;;;3.15;;
22622;SDS011;11478;51.094;7.030;2022-11-11T11:21:56;7.38;;;3.58;;
22622;SDS011;11478;51.094;7.030;2022-11-11T11:24:35;6.40;;;3.25;;
22622;SDS011;11478;51.094;7.030;2022-11-11T11:27:03;6.15;;;3.58;;
22622;SDS011;11478;51.094;7.030;2022-11-11T11:29:37;6.25;;;3.03;;
22622;SDS011;11478;51.094;7.030;2022-11-11T11:32:18;6.28;;;3.40;;
22622;SDS011;11478;51.094;7.030;2022-11-11T11:35:06;3.22;;;2.50;;
22622;SDS011;11478;51.094;7.030;2022-11-11T11:37:35;8.40;;;3.17;;
22622;SDS011;11478;51.094;7.030;2022-11-11T11:40:13;5.32;;;3.33;;
22622;SDS011;11478;51.094;7.030;2022-11-11T11:42:41;5.80;;;3.00;;
22622;SDS011;11478;51.094;7.030;2022-11-11T11:45:26;5.07;;;2.88;;
22622;SDS011;11478;51.094;7.030;2022-11-11T11:56:49;4.20;;;2.78;;
22622;SDS011;11478;51.094;7.030;2022-11-11T12:08:02;4.45;;;2.40;;
22622;SDS011;11478;51.094;7.030;2022-11-11T12:24:48;3.85;;;2.30;;
22622;SDS011;11478;51.094;7.030;2022-11-11T12:27:53;6.05;;;2.40;;
22622;SDS011;11478;51.094;7.030;2022-11-11T12:30:30;3.65;;;2.15;;
22622;SDS011;11478;51.094;7.030;2022-11-11T12:36:14;5.30;;;2.40;;
22622;SDS011;11478;51.094;7.030;2022-11-11T12:41:33;4.25;;;2.35;;
22622;SDS011;11478;51.094;7.030;2022-11-11T12:44:13;5.47;;;2.30;;
22622;SDS011;11478;51.094;7.030;2022-11-11T12:47:10;9.48;;;2.10;;
22622;SDS011;11478;51.094;7.030;2022-11-11T12:50:12;5.13;;;2.50;;
22622;SDS011;11478;51.094;7.030;2022-11-11T13:01:50;5.30;;;2.20;;
22622;SDS011;11478;51.094;7.030;2022-11-11T13:10:19;5.20;;;2.25;;
22622;SDS011;11478;51.094;7.030;2022-11-11T13:12:54;3.08;;;2.20;;
22622;SDS011;11478;51.094;7.030;2022-11-11T13:15:30;4.65;;;2.10;;
22622;SDS011;11478;51.094;7.030;2022-11-11T13:18:00;4.80;;;2.10;;
22622;SDS011;11478;51.094;7.030;2022-11-11T13:23:32;5.82;;;2.10;;
22622;SDS011;11478;51.094;7.030;2022-11-11T13:28:38;3.30;;;2.22;;
22622;SDS011;11478;51.094;7.030;2022-11-11T13:34:12;6.35;;;2.20;;
22622;SDS011;11478;51.094;7.030;2022-11-11T13:36:50;6.03;;;1.90;;
22622;SDS011;11478;51.094;7.030;2022-11-11T13:39:44;4.80;;;2.08;;
22622;SDS011;11478;51.094;7.030;2022-11-11T13:42:25;4.15;;;1.90;;
22622;SDS011;11478;51.094;7.030;2022-11-11T13:45:01;2.80;;;1.70;;
22622;SDS011;11478;51.094;7.030;2022-11-11T13:50:39;2.15;;;1.52;;
22622;SDS011;11478;51.094;7.030;2022-11-11T13:56:31;4.18;;;2.05;;
22622;SDS011;11478;51.094;7.030;2022-11-11T13:59:13;4.18;;;1.75;;
22622;SDS011;11478;51.094;7.030;2022-11-11T14:07:56;3.33;;;1.60;;
22622;SDS011;11478;51.094;7.030;2022-11-11T14:13:36;7.45;;;1.75;;
22622;SDS011;11478;51.094;7.030;2022-11-11T14:37:19;2.88;;;1.60;;
22622;SDS011;11478;51.094;7.030;2022-11-11T14:59:25;6.03;;;1.88;;
22622;SDS011;11478;51.094;7.030;2022-11-11T15:02:24;4.00;;;1.60;;
22622;SDS011;11478;51.094;7.030;2022-11-11T15:05:16;8.25;;;1.70;;
22622;SDS011;11478;51.094;7.030;2022-11-11T15:22:06;5.35;;;1.45;;
22622;SDS011;11478;51.094;7.030;2022-11-11T15:37:41;5.13;;;1.40;;
22622;SDS011;11478;51.094;7.030;2022-11-11T15:59:21;6.13;;;1.70;;
22622;SDS011;11478;51.094;7.030;2022-11-11T16:02:04;1.80;;;1.50;;
22622;SDS011;11478;51.094;7.030;2022-11-11T16:05:00;4.15;;;1.48;;
22622;SDS011;11478;51.094;7.030;2022-11-11T16:12:50;6.22;;;1.85;;
22622;SDS011;11478;51.094;7.030;2022-11-11T16:42:53;4.53;;;2.00;;
22622;SDS011;11478;51.094;7.030;2022-11-11T16:45:47;7.30;;;2.00;;
22622;SDS011;11478;51.094;7.030;2022-11-11T16:48:40;3.67;;;1.73;;
22622;SDS011;11478;51.094;7.030;2022-11-11T17:01:44;8.23;;;2.35;;
22622;SDS011;11478;51.094;7.030;2022-11-11T17:04:15;6.65;;;2.60;;
22622;SDS011;11478;51.094;7.030;2022-11-11T17:06:49;4.18;;;2.42;;
22622;SDS011;11478;51.094;7.030;2022-11-11T17:12:42;6.75;;;3.20;;
22622;SDS011;11478;51.094;7.030;2022-11-11T17:15:15;6.15;;;3.30;;
22622;SDS011;11478;51.094;7.030;2022-11-11T17:20:48;8.68;;;4.70;;
22622;SDS011;11478;51.094;7.030;2022-11-11T17:23:19;9.90;;;3.70;;
22622;SDS011;11478;51.094;7.030;2022-11-11T17:25:46;8.30;;;3.45;;
22622;SDS011;11478;51.094;7.030;2022-11-11T17:33:37;9.95;;;3.20;;
22622;SDS011;11478;51.094;7.030;2022-11-11T17:36:06;6.20;;;3.60;;
22622;SDS011;11478;51.094;7.030;2022-11-11T17:38:36;14.60;;;5.90;;
22622;SDS011;11478;51.094;7.030;2022-11-11T17:41:04;8.60;;;4.28;;
22622;SDS011;11478;51.094;7.030;2022-11-11T17:43:57;8.15;;;3.80;;
22622;SDS011;11478;51.094;7.030;2022-11-11T17:46:34;7.22;;;3.50;;
22622;SDS011;11478;51.094;7.030;2022-11-11T17:49:07;5.28;;;3.20;;
22622;SDS011;11478;51.094;7.030;2022-11-11T17:54:38;9.07;;;4.20;;
22622;SDS011;11478;51.094;7.030;2022-11-11T17:57:04;4.20;;;2.92;;
22622;SDS011;11478;51.094;7.030;2022-11-11T17:59:37;9.53;;;3.37;;
22622;SDS011;11478;51.094;7.030;2022-11-11T18:02:04;6.65;;;2.88;;
22622;SDS011;11478;51.094;7.030;2022-11-11T18:04:32;7.50;;;3.70;;
22622;SDS011;11478;51.094;7.030;2022-11-11T18:07:00;5.25;;;3.10;;
22622;SDS011;11478;51.094;7.030;2022-11-11T18:09:26;6.53;;;3.40;;
22622;SDS011;11478;51.094;7.030;2022-11-11T18:11:52;5.25;;;3.03;;
22622;SDS011;11478;51.094;7.030;2022-11-11T18:14:26;9.85;;;3.30;;
22622;SDS011;11478;51.094;7.030;2022-11-11T18:16:52;10.38;;;4.45;;
22622;SDS011;11478;51.094;7.030;2022-11-11T18:19:28;31.00;;;12.07;;
22622;SDS011;11478;51.094;7.030;2022-11-11T18:21:58;11.82;;;4.40;;
22622;SDS011;11478;51.094;7.030;2022-11-11T18:24:24;8.23;;;4.57;;
22622;SDS011;11478;51.094;7.030;2022-11-11T18:26:55;6.28;;;3.83;;
22622;SDS011;11478;51.094;7.030;2022-11-11T18:29:37;6.93;;;3.55;;
22622;SDS011;11478;51.094;7.030;2022-11-11T18:32:06;6.50;;;3.50;;
22622;SDS011;11478;51.094;7.030;2022-11-11T18:34:34;13.65;;;5.10;;
22622;SDS011;11478;51.094;7.030;2022-11-11T18:37:09;9.65;;;3.63;;
22622;SDS011;11478;51.094;7.030;2022-11-11T18:39:36;9.30;;;3.83;;
22622;SDS011;11478;51.094;7.030;2022-11-11T18:42:01;12.25;;;3.63;;
22622;SDS011;11478;51.094;7.030;2022-11-11T18:44:28;10.40;;;3.63;;
22622;SDS011;11478;51.094;7.030;2022-11-11T18:46:54;12.43;;;6.47;;
22622;SDS011;11478;51.094;7.030;2022-11-11T18:51:55;7.05;;;3.60;;
22622;SDS011;11478;51.094;7.030;2022-11-11T18:54:25;9.02;;;3.53;;
22622;SDS011;11478;51.094;7.030;2022-11-11T18:56:51;11.73;;;3.40;;
22622;SDS011;11478;51.094;7.030;2022-11-11T18:59:20;5.93;;;3.30;;
22622;SDS011;11478;51.094;7.030;2022-11-11T19:01:50;11.30;;;3.60;;
22622;SDS011;11478;51.094;7.030;2022-11-11T19:04:22;21.50;;;14.40;;
22622;SDS011;11478;51.094;7.030;2022-11-11T19:06:53;6.60;;;4.38;;
22622;SDS011;11478;51.094;7.030;2022-11-11T19:09:23;6.82;;;4.22;;
22622;SDS011;11478;51.094;7.030;2022-11-11T19:11:52;5.82;;;3.33;;
22622;SDS011;11478;51.094;7.030;2022-11-11T19:14:18;13.77;;;8.70;;
22622;SDS011;11478;51.094;7.030;2022-11-11T19:16:44;6.50;;;4.28;;
22622;SDS011;11478;51.094;7.030;2022-11-11T19:19:11;8.60;;;4.30;;
22622;SDS011;11478;51.094;7.030;2022-11-11T19:21:41;8.50;;;3.58;;
22622;SDS011;11478;51.094;7.030;2022-11-11T19:24:07;10.18;;;5.63;;
22622;SDS011;11478;51.094;7.030;2022-11-11T19:26:33;13.82;;;4.95;;
22622;SDS011;11478;51.094;7.030;2022-11-11T19:29:00;9.55;;;4.93;;
22622;SDS011;11478;51.094;7.030;2022-11-11T19:31:32;15.52;;;5.60;;
22622;SDS011;11478;51.094;7.030;2022-11-11T19:34:00;10.15;;;4.72;;
22622;SDS011;11478;51.094;7.030;2022-11-11T19:36:28;38.83;;;16.77;;
22622;SDS011;11478;51.094;7.030;2022-11-11T19:39:00;12.02;;;5.65;;
22622;SDS011;11478;51.094;7.030;2022-11-11T19:41:29;8.32;;;4.90;;
22622;SDS011;11478;51.094;7.030;2022-11-11T19:44:02;42.83;;;22.90;;
22622;SDS011;11478;51.094;7.030;2022-11-11T19:46:34;30.08;;;16.55;;
22622;SDS011;11478;51.094;7.030;2022-11-11T19:49:01;13.60;;;8.68;;
22622;SDS011;11478;51.094;7.030;2022-11-11T19:51:29;8.40;;;5.10;;
22622;SDS011;11478;51.094;7.030;2022-11-11T19:53:58;9.80;;;4.13;;
22622;SDS011;11478;51.094;7.030;2022-11-11T19:56:28;8.48;;;4.25;;
22622;SDS011;11478;51.094;7.030;2022-11-11T19:58:57;7.03;;;4.20;;
22622;SDS011;11478;51.094;7.030;2022-11-11T20:01:27;6.60;;;4.00;;
22622;SDS011;11478;51.094;7.030;2022-11-11T20:04:01;9.95;;;5.20;;
22622;SDS011;11478;51.094;7.030;2022-11-11T20:06:33;5.43;;;4.03;;
22622;SDS011;11478;51.094;7.030;2022-11-11T20:09:04;6.57;;;4.40;;
22622;SDS011;11478;51.094;7.030;2022-11-11T20:11:38;8.65;;;4.70;;
22622;SDS011;11478;51.094;7.030;2022-11-11T20:14:06;7.28;;;4.57;;
22622;SDS011;11478;51.094;7.030;2022-11-11T20:19:34;9.57;;;4.88;;
22622;SDS011;11478;51.094;7.030;2022-11-11T20:24:35;8.55;;;5.38;;
22622;SDS011;11478;51.094;7.030;2022-11-11T20:29:47;12.52;;;7.80;;
22622;SDS011;11478;51.094;7.030;2022-11-11T20:32:15;13.38;;;8.52;;
22622;SDS011;11478;51.094;7.030;2022-11-11T20:34:46;14.82;;;6.20;;
22622;SDS011;11478;51.094;7.030;2022-11-11T20:37:13;13.82;;;6.07;;
22622;SDS011;11478;51.094;7.030;2022-11-11T20:39:45;12.45;;;5.95;;
22622;SDS011;11478;51.094;7.030;2022-11-11T20:42:17;9.45;;;5.55;;
22622;SDS011;11478;51.094;7.030;2022-11-11T20:44:43;12.18;;;5.03;;
22622;SDS011;11478;51.094;7.030;2022-11-11T20:47:09;8.93;;;5.22;;
22622;SDS011;11478;51.094;7.030;2022-11-11T20:49:38;10.98;;;4.85;;
22622;SDS011;11478;51.094;7.030;2022-11-11T20:52:12;8.38;;;4.47;;
22622;SDS011;11478;51.094;7.030;2022-11-11T20:54:39;9.23;;;5.00;;
22622;SDS011;11478;51.094;7.030;2022-11-11T20:57:07;8.48;;;5.47;;
22622;SDS011;11478;51.094;7.030;2022-11-11T20:59:42;10.52;;;5.28;;
22622;SDS011;11478;51.094;7.030;2022-11-11T21:02:16;8.40;;;4.75;;
22622;SDS011;11478;51.094;7.030;2022-11-11T21:04:47;8.55;;;4.80;;
22622;SDS011;11478;51.094;7.030;2022-11-11T21:07:18;11.82;;;5.30;;
22622;SDS011;11478;51.094;7.030;2022-11-11T21:09:46;8.68;;;5.57;;
22622;SDS011;11478;51.094;7.030;2022-11-11T21:12:19;9.35;;;5.05;;
22622;SDS011;11478;51.094;7.030;2022-11-11T21:14:47;13.05;;;5.30;;
22622;SDS011;11478;51.094;7.030;2022-11-11T21:17:13;9.52;;;5.15;;
22622;SDS011;11478;51.094;7.030;2022-11-11T21:19:49;7.32;;;4.90;;
22622;SDS011;11478;51.094;7.030;2022-11-11T21:22:15;8.93;;;5.72;;
22622;SDS011;11478;51.094;7.030;2022-11-11T21:24:48;11.20;;;4.85;;
22622;SDS011;11478;51.094;7.030;2022-11-11T21:27:28;7.53;;;4.90;;
22622;SDS011;11478;51.094;7.030;2022-11-11T21:29:56;7.50;;;5.13;;
22622;SDS011;11478;51.094;7.030;2022-11-11T21:32:25;6.95;;;4.60;;
22622;SDS011;11478;51.094;7.030;2022-11-11T21:34:54;8.68;;;5.20;;
22622;SDS011;11478;51.094;7.030;2022-11-11T21:37:23;8.55;;;5.10;;
22622;SDS011;11478;51.094;7.030;2022-11-11T21:40:01;8.52;;;5.45;;
22622;SDS011;11478;51.094;7.030;2022-11-11T21:42:29;9.23;;;5.70;;
22622;SDS011;11478;51.094;7.030;2022-11-11T21:44:57;9.32;;;5.57;;
22622;SDS011;11478;51.094;7.030;2022-11-11T21:47:26;22.23;;;6.22;;
22622;SDS011;11478;51.094;7.030;2022-11-11T21:49:52;9.00;;;6.20;;
22622;SDS011;11478;51.094;7.030;2022-11-11T21:52:27;8.43;;;5.28;;
22622;SDS011;11478;51.094;7.030;2022-11-11T21:54:53;8.52;;;5.15;;
22622;SDS011;11478;51.094;7.030;2022-11-11T21:57:22;10.25;;;5.03;;
22622;SDS011;11478;51.094;7.030;2022-11-11T22:02:46;8.13;;;5.45;;
22622;SDS011;11478;51.094;7.030;2022-11-11T22:05:16;9.50;;;5.65;;
22622;SDS011;11478;51.094;7.030;2022-11-11T22:07:42;8.45;;;5.53;;
22622;SDS011;11478;51.094;7.030;2022-11-11T22:10:10;8.20;;;4.85;;
22622;SDS011;11478;51.094;7.030;2022-11-11T22:12:45;7.68;;;5.18;;
22622;SDS011;11478;51.094;7.030;2022-11-11T22:15:15;8.35;;;5.20;;
22622;SDS011;11478;51.094;7.030;2022-11-11T22:17:41;8.93;;;5.63;;
22622;SDS011;11478;51.094;7.030;2022-11-11T22:20:10;12.02;;;5.90;;
22622;SDS011;11478;51.094;7.030;2022-11-11T22:22:45;12.73;;;5.60;;
22622;SDS011;11478;51.094;7.030;2022-11-11T22:25:14;8.50;;;5.50;;
22622;SDS011;11478;51.094;7.030;2022-11-11T22:27:40;10.95;;;5.25;;
22622;SDS011;11478;51.094;7.030;2022-11-11T22:30:20;9.60;;;5.45;;
22622;SDS011;11478;51.094;7.030;2022-11-11T22:32:51;14.43;;;5.53;;
22622;SDS011;11478;51.094;7.030;2022-11-11T22:35:20;7.95;;;4.97;;
22622;SDS011;11478;51.094;7.030;2022-11-11T22:37:46;8.63;;;5.35;;
22622;SDS011;11478;51.094;7.030;2022-11-11T22:40:23;7.70;;;4.82;;
22622;SDS011;11478;51.094;7.030;2022-11-11T22:42:59;7.43;;;4.70;;
22622;SDS011;11478;51.094;7.030;2022-11-11T22:45:30;7.78;;;4.63;;
22622;SDS011;11478;51.094;7.030;2022-11-11T22:47:58;7.88;;;5.80;;
22622;SDS011;11478;51.094;7.030;2022-11-11T22:50:26;8.55;;;5.45;;
22622;SDS011;11478;51.094;7.030;2022-11-11T22:52:58;11.15;;;5.10;;
22622;SDS011;11478;51.094;7.030;2022-11-11T22:55:24;8.60;;;5.30;;
22622;SDS011;11478;51.094;7.030;2022-11-11T22:57:50;7.30;;;5.10;;
22622;SDS011;11478;51.094;7.030;2022-11-11T23:00:31;11.73;;;6.32;;
22622;SDS011;11478;51.094;7.030;2022-11-11T23:02:57;8.18;;;5.32;;
22622;SDS011;11478;51.094;7.030;2022-11-11T23:05:34;8.23;;;5.32;;
22622;SDS011;11478;51.094;7.030;2022-11-11T23:08:00;10.25;;;5.65;;